Time;durP1;ratioP1;P1;durP2;ratioP2;P2;SDS_P1;SDS_P2;PMS_P1;PMS_P2;Temp;Humidity;BMP_temperature;BMP_pressure;BME280_temperature;BME280_humidity;BME280_pressure;Samples;Min_cycle;Max_cycle;Signal;HPM_P1;HPM_P2
2023/03/08 00:00:58;;;;;;;62.55;31.98;;;3.40;99.90;;;;;;5028286;28;20567;-67
2023/03/08 00:03:24;;;;;;;63.33;32.33;;;3.40;99.90;;;;;;5029075;28;20040;-66
2023/03/08 00:05:49;;;;;;;58.80;31.17;;;3.40;99.90;;;;;;5029389;28;20068;-67
2023/03/08 00:08:16;;;;;;;62.63;30.90;;;3.30;99.90;;;;;;5029137;28;20033;-68
2023/03/08 00:10:42;;;;;;;65.78;30.20;;;3.30;99.90;;;;;;5028752;28;20582;-68
2023/03/08 00:13:07;;;;;;;60.20;31.33;;;3.20;99.90;;;;;;5028450;28;20029;-68
2023/03/08 00:15:35;;;;;;;58.92;31.95;;;3.20;99.90;;;;;;5027515;28;20120;-68
2023/03/08 00:18:00;;;;;;;59.25;30.05;;;3.10;99.90;;;;;;5028647;28;20036;-68
2023/03/08 00:20:26;;;;;;;68.07;31.97;;;3.10;99.90;;;;;;5028831;28;20021;-67
2023/03/08 00:22:51;;;;;;;61.03;32.17;;;3.10;99.90;;;;;;5029111;28;20074;-68
2023/03/08 00:25:17;;;;;;;61.20;30.40;;;3.20;99.90;;;;;;5028781;28;20034;-67
2023/03/08 00:27:43;;;;;;;66.83;32.27;;;3.20;99.90;;;;;;5027549;28;20896;-68
2023/03/08 00:30:11;;;;;;;62.27;31.77;;;3.20;99.90;;;;;;5028451;28;20304;-68
2023/03/08 00:32:36;;;;;;;58.17;29.88;;;3.10;99.90;;;;;;5028148;28;20489;-66
2023/03/08 00:35:02;;;;;;;61.63;31.53;;;3.20;99.90;;;;;;5028379;28;20033;-68
2023/03/08 00:37:27;;;;;;;60.33;30.92;;;3.20;99.90;;;;;;5028520;28;20397;-68
2023/03/08 00:39:53;;;;;;;61.33;29.63;;;3.10;99.90;;;;;;5028683;28;20092;-67
2023/03/08 00:42:20;;;;;;;64.22;30.50;;;3.10;99.90;;;;;;5028101;28;20092;-68
2023/03/08 00:44:46;;;;;;;;;;;3.00;99.90;;;;;;5027976;28;20041;-66
2023/03/08 00:47:11;;;;;;;64.43;29.95;;;3.00;99.90;;;;;;5027705;28;19916;-68
2023/03/08 00:49:37;;;;;;;55.83;29.63;;;3.00;99.90;;;;;;5027899;28;20124;-68
2023/03/08 00:52:03;;;;;;;61.67;28.83;;;3.10;99.90;;;;;;5028273;28;20030;-66
2023/03/08 00:54:29;;;;;;;55.38;27.77;;;3.10;99.90;;;;;;5026987;28;20099;-68
2023/03/08 00:56:55;;;;;;;56.65;27.30;;;3.00;99.90;;;;;;5028356;28;20025;-69
2023/03/08 00:59:20;;;;;;;56.42;28.27;;;2.90;99.90;;;;;;5028527;28;20041;-67
2023/03/08 01:01:46;;;;;;;58.45;29.17;;;2.90;99.90;;;;;;5027918;28;20041;-66
2023/03/08 01:04:12;;;;;;;64.83;29.10;;;2.90;99.90;;;;;;5026682;28;20481;-67
2023/03/08 01:06:38;;;;;;;60.28;28.83;;;2.90;99.90;;;;;;5025649;28;20033;-66
2023/03/08 01:09:04;;;;;;;;;;;2.90;99.90;;;;;;5025951;28;20064;-67
2023/03/08 01:11:30;;;;;;;52.65;26.65;;;2.80;99.90;;;;;;5026794;28;19971;-67
2023/03/08 01:13:55;;;;;;;51.70;25.63;;;2.80;99.90;;;;;;5028276;28;20436;-67
2023/03/08 01:16:27;;;;;;;56.28;27.63;;;2.70;99.90;;;;;;5027970;28;20044;-68
2023/03/08 01:18:53;;;;;;;59.97;28.27;;;2.80;99.90;;;;;;5028125;28;20056;-65
2023/03/08 01:21:19;;;;;;;51.78;26.85;;;2.80;99.90;;;;;;5027838;28;20025;-68
2023/03/08 01:23:45;;;;;;;58.92;28.27;;;2.80;99.90;;;;;;5027738;28;20029;-68
2023/03/08 01:26:16;;;;;;;52.42;26.15;;;2.70;99.90;;;;;;5026245;28;20700;-66
2023/03/08 01:28:43;;;;;;;58.47;28.15;;;2.80;99.90;;;;;;5027879;28;20108;-66
2023/03/08 01:31:16;;;;;;;;;;;2.70;99.90;;;;;;5027046;28;20433;-68
2023/03/08 01:33:42;;;;;;;54.20;26.80;;;2.60;99.90;;;;;;5026609;28;19951;-69
2023/03/08 01:36:10;;;;;;;47.13;25.25;;;2.60;99.90;;;;;;5027374;28;20025;-68
2023/03/08 01:38:37;;;;;;;51.55;25.55;;;2.60;99.90;;;;;;5028318;28;20118;-66
2023/03/08 01:41:04;;;;;;;53.85;24.80;;;2.60;99.90;;;;;;5027491;28;20025;-67
2023/03/08 01:43:32;;;;;;;56.92;26.15;;;2.60;99.90;;;;;;5027891;28;20021;-66
2023/03/08 01:46:06;;;;;;;51.58;25.77;;;2.60;99.90;;;;;;5027136;28;20052;-66
2023/03/08 01:48:53;;;;;;;60.90;28.45;;;2.60;99.90;;;;;;5014782;28;20037;-67
2023/03/08 01:51:45;;;;;;;50.92;25.80;;;2.60;99.90;;;;;;5027468;28;20464;-65
2023/03/08 01:54:13;;;;;;;46.55;24.42;;;2.60;99.90;;;;;;5004920;28;20030;-67
2023/03/08 01:56:41;;;;;;;49.17;23.63;;;2.70;99.90;;;;;;5019632;28;20503;-69
2023/03/08 01:59:07;;;;;;;47.80;24.95;;;2.70;99.90;;;;;;5026591;28;20103;-67
2023/03/08 02:01:33;;;;;;;46.20;23.77;;;2.70;99.90;;;;;;5026181;28;20030;-68
2023/03/08 02:04:00;;;;;;;50.03;23.25;;;2.70;99.90;;;;;;5026650;28;20112;-67
2023/03/08 02:06:27;;;;;;;;;;;2.70;99.90;;;;;;5027634;28;20493;-67
2023/03/08 02:08:52;;;;;;;52.47;24.67;;;2.70;99.90;;;;;;5027525;28;19913;-66
2023/03/08 02:11:21;;;;;;;51.38;24.75;;;2.60;99.90;;;;;;5027118;28;20025;-68
2023/03/08 02:13:48;;;;;;;47.63;23.45;;;2.50;99.90;;;;;;5027455;28;20033;-67
2023/03/08 02:16:16;;;;;;;55.45;28.52;;;2.40;99.90;;;;;;5025514;28;20029;-68
2023/03/08 02:18:50;;;;;;;55.03;26.08;;;2.30;99.90;;;;;;5026951;28;20031;-68
2023/03/08 02:21:16;;;;;;;51.00;26.75;;;2.30;99.90;;;;;;5030126;28;20029;-67
2023/03/08 02:23:42;;;;;;;43.08;23.35;;;2.30;99.90;;;;;;5031283;28;20071;-67
2023/03/08 02:26:07;;;;;;;48.30;25.43;;;2.30;99.90;;;;;;5029364;28;20060;-68
2023/03/08 02:28:33;;;;;;;52.13;26.37;;;2.30;99.90;;;;;;5031069;28;20414;-68
2023/03/08 02:30:59;;;;;;;48.20;25.38;;;2.40;99.90;;;;;;5030504;28;20045;-69
2023/03/08 02:33:25;;;;;;;48.83;23.70;;;2.40;99.90;;;;;;5029187;28;20026;-65
2023/03/08 02:35:51;;;;;;;47.38;24.95;;;2.40;99.90;;;;;;5029672;28;20032;-69
2023/03/08 02:38:18;;;;;;;50.22;23.85;;;2.40;99.90;;;;;;5029937;28;20033;-66
2023/03/08 02:40:44;;;;;;;42.03;22.35;;;2.40;99.90;;;;;;5029066;28;20048;-68
2023/03/08 02:43:10;;;;;;;49.67;23.52;;;2.40;99.90;;;;;;5030130;28;20049;-68
2023/03/08 02:45:36;;;;;;;48.65;23.83;;;2.50;99.90;;;;;;5028173;28;20123;-68
2023/03/08 02:48:03;;;;;;;41.33;22.53;;;2.50;99.90;;;;;;5030716;28;20068;-69
2023/03/08 02:50:30;;;;;;;51.33;23.20;;;2.50;99.90;;;;;;5030725;28;20038;-64
2023/03/08 02:52:56;;;;;;;46.85;23.83;;;2.60;99.90;;;;;;5030927;28;20136;-66
2023/03/08 02:55:21;;;;;;;42.92;23.13;;;2.60;99.90;;;;;;5030322;28;20112;-67
2023/03/08 02:57:47;;;;;;;38.17;21.40;;;2.70;99.90;;;;;;5029084;28;20062;-68
2023/03/08 03:00:13;;;;;;;48.13;22.90;;;2.70;99.90;;;;;;5030668;28;20444;-69
2023/03/08 03:02:39;;;;;;;44.33;22.70;;;2.80;99.90;;;;;;5030498;28;20029;-68
2023/03/08 03:05:09;;;;;;;41.13;21.73;;;2.90;99.90;;;;;;5029059;28;20036;-67
2023/03/08 03:07:36;;;;;;;44.10;22.38;;;3.00;99.90;;;;;;5029635;28;20315;-66
2023/03/08 03:10:02;;;;;;;38.97;21.80;;;3.00;99.90;;;;;;5030245;28;20041;-68
2023/03/08 03:12:28;;;;;;;44.17;23.48;;;3.00;99.90;;;;;;5030516;28;20071;-68
2023/03/08 03:14:54;;;;;;;42.25;24.55;;;2.90;99.90;;;;;;5030097;28;20033;-68
2023/03/08 03:17:20;;;;;;;41.23;23.20;;;2.80;99.90;;;;;;5029120;28;20379;-68
2023/03/08 03:19:45;;;;;;;48.90;24.35;;;3.00;99.90;;;;;;5029566;28;20137;-68
2023/03/08 03:22:11;;;;;;;43.43;22.53;;;3.00;99.90;;;;;;5030144;28;20927;-67
2023/03/08 03:24:36;;;;;;;43.47;23.63;;;3.10;99.90;;;;;;5029986;28;20691;-68
2023/03/08 03:27:02;;;;;;;45.50;22.43;;;3.30;99.90;;;;;;5029917;28;20029;-68
2023/03/08 03:29:28;;;;;;;48.60;21.90;;;3.40;99.90;;;;;;5030178;28;20080;-66
2023/03/08 03:31:53;;;;;;;46.60;21.77;;;3.50;99.90;;;;;;5027688;28;20074;-68
2023/03/08 03:34:19;;;;;;;46.23;22.60;;;3.50;99.90;;;;;;5029591;28;20284;-67
2023/03/08 03:36:44;;;;;;;40.20;22.00;;;3.60;99.90;;;;;;5027614;28;20490;-68
2023/03/08 03:39:10;;;;;;;42.60;20.80;;;3.70;99.90;;;;;;5029567;28;20037;-64
2023/03/08 03:41:36;;;;;;;43.23;21.77;;;3.70;99.90;;;;;;5029863;28;20599;-65
2023/03/08 03:44:01;;;;;;;46.63;22.00;;;3.70;99.90;;;;;;5029912;28;20064;-68
2023/03/08 03:46:27;;;;;;;39.87;20.53;;;3.70;99.90;;;;;;5029721;28;20037;-67
2023/03/08 03:48:52;;;;;;;35.03;19.10;;;3.80;99.90;;;;;;5029646;28;20033;-61
2023/03/08 03:51:20;;;;;;;37.77;20.00;;;3.70;99.90;;;;;;5029642;28;20060;-69
2023/03/08 03:53:46;;;;;;;38.20;19.88;;;3.60;99.90;;;;;;5029366;28;20108;-68
2023/03/08 03:56:15;;;;;;;43.85;19.83;;;3.60;99.90;;;;;;5029252;28;20033;-67
2023/03/08 03:58:41;;;;;;;38.45;19.45;;;3.60;99.90;;;;;;5029501;28;20463;-68
2023/03/08 04:01:19;;;;;;;38.53;20.33;;;3.60;99.90;;;;;;5029241;28;20056;-68
2023/03/08 04:03:46;;;;;;;38.92;19.40;;;3.60;99.90;;;;;;5029333;28;20044;-69
2023/03/08 04:06:11;;;;;;;;;;;3.60;99.90;;;;;;5029294;28;20111;-67
2023/03/08 04:08:43;;;;;;;42.33;20.48;;;3.50;99.90;;;;;;5029356;28;20381;-69
2023/03/08 04:11:14;;;;;;;41.83;21.17;;;3.50;99.90;;;;;;5028332;28;20404;-69
2023/03/08 04:13:40;;;;;;;37.65;19.73;;;3.50;99.90;;;;;;5028527;28;20033;-66
2023/03/08 04:16:20;;;;;;;44.30;21.88;;;3.50;99.90;;;;;;5029187;28;20041;-66
2023/03/08 04:18:46;;;;;;;42.60;21.15;;;3.50;99.90;;;;;;5029231;28;20511;-67
2023/03/08 04:21:13;;;;;;;39.90;21.33;;;3.60;99.90;;;;;;5029157;28;20037;-67
2023/03/08 04:23:38;;;;;;;;;;;3.50;99.90;;;;;;5029488;28;20029;-66
2023/03/08 04:26:05;;;;;;;40.60;20.20;;;3.50;99.90;;;;;;5028483;28;19935;-66
2023/03/08 04:28:32;;;;;;;39.17;20.50;;;3.60;99.90;;;;;;5029387;28;20040;-68
2023/03/08 04:30:59;;;;;;;34.65;17.80;;;3.70;99.90;;;;;;5028618;28;20420;-66
2023/03/08 04:33:24;;;;;;;35.72;18.95;;;3.80;99.90;;;;;;5026132;28;20024;-68
2023/03/08 04:35:50;;;;;;;30.97;16.93;;;3.80;99.90;;;;;;5028085;28;20042;-68
2023/03/08 04:38:16;;;;;;;35.45;17.52;;;4.00;99.90;;;;;;5028531;28;20099;-69
2023/03/08 04:41:00;;;;;;;30.50;15.73;;;4.20;99.90;;;;;;5026582;28;20040;-67
2023/03/08 04:43:26;;;;;;;25.75;15.02;;;4.30;99.90;;;;;;5027384;28;20083;-68
2023/03/08 04:45:52;;;;;;;34.80;17.15;;;4.40;99.90;;;;;;5027943;28;20382;-69
2023/03/08 04:48:18;;;;;;;33.00;15.00;;;4.40;99.90;;;;;;5028748;28;20037;-68
2023/03/08 04:50:43;;;;;;;25.55;13.57;;;4.50;99.90;;;;;;5028492;28;20127;-68
2023/03/08 04:53:09;;;;;;;27.70;14.60;;;4.60;99.90;;;;;;5026868;28;20053;-66
2023/03/08 04:55:37;;;;;;;27.03;14.80;;;4.60;99.90;;;;;;5027445;28;20036;-68
2023/03/08 04:58:03;;;;;;;22.35;12.93;;;4.60;99.90;;;;;;5027952;28;20100;-69
2023/03/08 05:00:29;;;;;;;24.83;14.35;;;4.80;99.90;;;;;;5028394;28;20124;-69
2023/03/08 05:02:55;;;;;;;29.07;14.93;;;4.70;99.90;;;;;;5028108;28;20393;-68
2023/03/08 05:05:20;;;;;;;26.63;13.27;;;4.70;99.90;;;;;;5028002;28;20500;-64
2023/03/08 05:07:46;;;;;;;26.13;14.47;;;4.70;99.90;;;;;;5026944;28;20026;-64
2023/03/08 05:10:11;;;;;;;25.20;13.13;;;4.70;99.90;;;;;;5027895;28;20072;-67
2023/03/08 05:12:37;;;;;;;23.67;13.17;;;4.70;99.90;;;;;;5028054;28;20032;-66
2023/03/08 05:15:03;;;;;;;24.17;12.03;;;4.80;99.90;;;;;;5028396;28;20036;-67
2023/03/08 05:17:28;;;;;;;23.52;12.13;;;4.90;99.90;;;;;;5028531;28;20510;-68
2023/03/08 05:19:54;;;;;;;17.80;10.33;;;4.90;99.90;;;;;;5027859;28;20033;-65
2023/03/08 05:22:19;;;;;;;19.27;9.93;;;5.10;99.90;;;;;;5027404;28;20470;-67
2023/03/08 05:24:47;;;;;;;22.40;11.27;;;5.10;99.90;;;;;;5027407;28;20038;-67
2023/03/08 05:27:12;;;;;;;17.15;9.80;;;5.10;99.90;;;;;;5027493;28;20651;-65
2023/03/08 05:29:38;;;;;;;18.60;9.17;;;5.20;99.90;;;;;;5026128;28;20021;-66
2023/03/08 05:32:04;;;;;;;23.67;10.20;;;5.20;99.90;;;;;;5026866;28;20041;-65
2023/03/08 05:34:29;;;;;;;16.83;8.95;;;5.30;99.90;;;;;;5027514;28;20021;-68
2023/03/08 05:36:55;;;;;;;21.23;10.40;;;5.20;99.90;;;;;;5027209;28;20042;-64
2023/03/08 05:39:21;;;;;;;19.15;10.07;;;5.20;99.90;;;;;;5027432;28;20087;-66
2023/03/08 05:41:47;;;;;;;19.10;10.52;;;5.20;99.90;;;;;;5027315;28;20033;-65
2023/03/08 05:44:13;;;;;;;17.17;9.30;;;5.20;99.90;;;;;;5027276;28;20033;-67
2023/03/08 05:46:38;;;;;;;16.77;9.13;;;5.30;99.90;;;;;;5027754;28;20124;-64
2023/03/08 05:49:05;;;;;;;23.20;11.20;;;5.30;99.90;;;;;;5027873;28;20499;-68
2023/03/08 05:51:31;;;;;;;22.90;10.82;;;5.30;99.90;;;;;;5027783;28;20819;-67
2023/03/08 05:53:56;;;;;;;16.92;8.85;;;5.30;99.90;;;;;;5027542;28;20036;-68
2023/03/08 05:56:23;;;;;;;16.37;8.77;;;5.30;99.90;;;;;;5033728;28;20120;-67
2023/03/08 05:58:49;;;;;;;19.83;9.48;;;5.30;99.90;;;;;;5033845;28;20060;-66
2023/03/08 06:01:24;;;;;;;15.02;7.95;;;5.40;99.90;;;;;;5034054;28;20056;-67
2023/03/08 06:03:52;;;;;;;14.05;7.75;;;5.40;99.90;;;;;;5033836;28;20401;-67
2023/03/08 06:06:20;;;;;;;14.90;8.15;;;5.40;99.90;;;;;;5033667;28;20504;-67
2023/03/08 06:08:46;;;;;;;19.10;7.63;;;5.30;99.90;;;;;;5033688;28;20021;-62
2023/03/08 06:11:12;;;;;;;13.90;7.50;;;5.50;99.90;;;;;;5031677;28;20045;-67
2023/03/08 06:13:38;;;;;;;17.30;7.25;;;5.50;99.90;;;;;;5028071;28;20033;-69
2023/03/08 06:16:04;;;;;;;11.17;6.13;;;5.50;99.90;;;;;;5032105;28;20033;-67
2023/03/08 06:18:30;;;;;;;;;;;5.60;99.90;;;;;;5032160;28;20029;-67
2023/03/08 06:20:59;;;;;;;11.60;6.57;;;5.60;99.90;;;;;;5032142;28;19912;-65
2023/03/08 06:23:26;;;;;;;11.70;6.72;;;5.60;99.90;;;;;;5031998;28;20036;-67
2023/03/08 06:25:52;;;;;;;13.70;7.10;;;5.60;99.90;;;;;;5032494;28;20905;-66
2023/03/08 06:28:18;;;;;;;10.65;5.85;;;5.60;99.90;;;;;;5031836;28;20587;-64
2023/03/08 06:30:48;;;;;;;9.17;6.10;;;5.70;99.90;;;;;;5032958;28;20041;-65
2023/03/08 06:33:14;;;;;;;12.32;6.07;;;5.60;99.90;;;;;;5030961;28;20064;-61
2023/03/08 06:35:40;;;;;;;;;;;5.60;99.90;;;;;;5035708;28;20035;-65
2023/03/08 06:38:05;;;;;;;14.35;6.57;;;5.60;99.90;;;;;;5032058;28;20014;-65
2023/03/08 06:40:31;;;;;;;9.57;6.00;;;5.70;99.90;;;;;;5032724;28;20543;-67
2023/03/08 06:42:57;;;;;;;;;;;5.80;99.90;;;;;;5032813;28;20045;-68
2023/03/08 06:45:23;;;;;;;9.93;5.95;;;5.80;99.90;;;;;;5031863;28;19963;-68
2023/03/08 06:47:48;;;;;;;11.43;5.60;;;5.80;99.90;;;;;;5032897;28;20454;-68
2023/03/08 06:50:14;;;;;;;9.07;5.10;;;5.90;99.90;;;;;;5031847;28;20045;-68
2023/03/08 06:52:40;;;;;;;10.50;5.60;;;5.90;99.90;;;;;;5031430;28;20052;-63
2023/03/08 06:55:06;;;;;;;9.10;5.33;;;5.90;99.90;;;;;;5031086;28;20033;-66
2023/03/08 06:57:32;;;;;;;9.15;6.25;;;5.90;99.90;;;;;;5032360;28;20040;-69
2023/03/08 06:59:57;;;;;;;8.82;4.70;;;5.90;99.90;;;;;;5031654;28;20033;-69
2023/03/08 07:02:23;;;;;;;11.93;5.77;;;5.90;99.90;;;;;;5031037;28;20085;-67
2023/03/08 07:04:49;;;;;;;12.60;6.00;;;6.00;99.90;;;;;;5031975;28;20040;-69
2023/03/08 07:07:14;;;;;;;10.53;6.60;;;5.90;99.90;;;;;;5025939;28;20033;-69
2023/03/08 07:09:40;;;;;;;15.67;6.10;;;6.00;99.90;;;;;;5028552;28;20288;-69
2023/03/08 07:12:06;;;;;;;12.27;6.87;;;6.00;99.90;;;;;;5029267;28;20042;-69
2023/03/08 07:14:31;;;;;;;11.30;5.60;;;6.00;99.90;;;;;;5028778;28;20412;-67
2023/03/08 07:16:57;;;;;;;8.85;5.32;;;6.10;99.90;;;;;;5028271;28;20342;-68
2023/03/08 07:19:23;;;;;;;7.97;5.27;;;6.20;99.90;;;;;;5028527;28;20028;-69
2023/03/08 07:21:48;;;;;;;10.23;5.43;;;6.10;99.90;;;;;;5028615;28;20087;-68
2023/03/08 07:24:14;;;;;;;11.37;5.53;;;6.20;99.90;;;;;;5028414;28;20022;-64
2023/03/08 07:26:39;;;;;;;9.27;5.23;;;6.20;99.90;;;;;;5028964;28;20029;-64
2023/03/08 07:29:05;;;;;;;10.20;5.20;;;6.30;99.90;;;;;;5026752;28;20778;-68
2023/03/08 07:31:34;;;;;;;8.77;4.77;;;6.30;99.90;;;;;;5024546;28;20065;-65
2023/03/08 07:34:03;;;;;;;12.65;5.13;;;6.40;99.90;;;;;;5026287;28;20107;-70
2023/03/08 07:36:29;;;;;;;10.02;5.82;;;6.40;99.90;;;;;;5027494;28;20053;-67
2023/03/08 07:38:55;;;;;;;8.68;5.65;;;6.40;99.90;;;;;;5027310;28;20075;-66
2023/03/08 07:41:20;;;;;;;11.17;4.40;;;6.40;99.90;;;;;;5027048;28;20041;-63
2023/03/08 07:43:46;;;;;;;7.40;4.67;;;6.40;99.90;;;;;;5026101;28;20036;-66
2023/03/08 07:46:13;;;;;;;8.27;4.77;;;6.50;99.90;;;;;;5028567;28;20034;-67
2023/03/08 07:48:39;;;;;;;14.80;4.88;;;6.60;99.90;;;;;;5026642;28;20033;-65
2023/03/08 07:51:07;;;;;;;7.07;4.50;;;6.60;99.90;;;;;;5028610;28;20083;-67
2023/03/08 07:53:34;;;;;;;9.68;4.32;;;6.60;99.90;;;;;;5022409;28;20062;-64
2023/03/08 07:55:59;;;;;;;10.50;3.60;;;6.70;99.90;;;;;;5027368;28;20168;-64
2023/03/08 07:58:26;;;;;;;8.23;3.47;;;6.80;99.90;;;;;;5027425;28;20548;-67
2023/03/08 08:00:52;;;;;;;5.90;3.53;;;6.80;99.90;;;;;;5027652;28;20136;-65
2023/03/08 08:03:17;;;;;;;6.47;3.53;;;6.80;99.90;;;;;;5027166;28;20060;-65
2023/03/08 08:05:43;;;;;;;7.13;3.15;;;6.90;99.90;;;;;;5027100;28;20033;-66
2023/03/08 08:08:12;;;;;;;5.67;3.43;;;7.00;99.90;;;;;;5026440;28;20562;-66
2023/03/08 08:10:41;;;;;;;4.15;2.20;;;7.10;99.90;;;;;;5026243;28;20133;-68
2023/03/08 08:13:06;;;;;;;7.22;2.72;;;7.30;99.90;;;;;;5025728;28;20025;-69
2023/03/08 08:15:32;;;;;;;4.00;2.10;;;7.30;99.90;;;;;;5025423;28;20831;-63
2023/03/08 08:17:58;;;;;;;4.33;2.30;;;7.50;99.90;;;;;;5026628;28;20477;-64
2023/03/08 08:20:25;;;;;;;5.32;2.03;;;7.70;99.90;;;;;;5027094;28;20055;-67
2023/03/08 08:22:52;;;;;;;8.65;2.20;;;7.70;99.90;;;;;;5027815;28;20091;-67
2023/03/08 08:25:17;;;;;;;;;;;7.80;99.90;;;;;;5031410;28;20037;-66
2023/03/08 08:27:43;;;;;;;4.00;2.20;;;7.80;99.90;;;;;;5027413;28;19913;-62
2023/03/08 08:30:11;;;;;;;4.93;2.33;;;7.80;99.90;;;;;;5028016;28;20045;-67
2023/03/08 08:32:37;;;;;;;4.00;1.90;;;7.80;99.90;;;;;;5027457;28;20037;-71
2023/03/08 08:35:03;;;;;;;3.20;2.10;;;8.00;99.90;;;;;;5026795;28;20099;-67
2023/03/08 08:37:31;;;;;;;2.83;1.98;;;8.00;99.90;;;;;;5026488;28;20096;-66
2023/03/08 08:39:57;;;;;;;5.30;2.47;;;8.10;99.90;;;;;;5026940;28;20029;-65
2023/03/08 08:42:23;;;;;;;2.33;1.83;;;8.10;99.90;;;;;;5024748;28;20033;-67
2023/03/08 08:44:48;;;;;;;6.57;2.38;;;8.20;99.90;;;;;;5026272;28;20081;-66
2023/03/08 08:47:14;;;;;;;6.50;2.47;;;8.20;99.90;;;;;;5025689;28;20112;-65
2023/03/08 08:49:40;;;;;;;4.07;2.60;;;8.30;99.90;;;;;;5028098;28;20391;-65
2023/03/08 08:52:06;;;;;;;5.00;2.30;;;8.50;99.90;;;;;;5027739;28;20498;-65
2023/03/08 08:54:33;;;;;;;4.63;2.33;;;8.90;99.90;;;;;;5031542;28;20040;-67
2023/03/08 08:56:58;;;;;;;3.88;2.20;;;9.30;99.90;;;;;;5026559;28;20808;-66
2023/03/08 08:59:24;;;;;;;3.47;2.25;;;10.00;99.90;;;;;;5026298;28;20064;-63
2023/03/08 09:01:50;;;;;;;4.47;1.98;;;10.40;99.90;;;;;;5026038;28;20044;-67
2023/03/08 09:04:16;;;;;;;3.73;2.10;;;10.50;99.90;;;;;;5026476;28;20026;-67
2023/03/08 09:06:42;;;;;;;3.35;2.28;;;10.30;99.90;;;;;;5026828;28;20033;-66
2023/03/08 09:09:07;;;;;;;4.60;2.20;;;10.30;99.90;;;;;;5026542;28;20544;-65
2023/03/08 09:11:34;;;;;;;4.23;2.50;;;10.40;99.90;;;;;;5026517;28;20940;-67
2023/03/08 09:14:01;;;;;;;3.95;2.63;;;10.50;99.90;;;;;;5026859;28;20029;-66
2023/03/08 09:16:32;;;;;;;3.80;2.13;;;10.50;99.90;;;;;;5025938;28;20073;-68
2023/03/08 09:19:00;;;;;;;4.32;2.00;;;10.60;99.90;;;;;;5035689;28;20028;-65
2023/03/08 09:21:27;;;;;;;6.63;2.05;;;11.00;99.90;;;;;;5024981;28;20658;-67
2023/03/08 09:23:54;;;;;;;3.70;1.80;;;12.10;99.90;;;;;;5027737;28;20037;-66
2023/03/08 09:26:20;;;;;;;4.00;2.08;;;12.80;99.50;;;;;;5019414;28;20096;-66
2023/03/08 09:28:46;;;;;;;4.72;1.70;;;12.80;98.40;;;;;;5022588;28;20180;-65
2023/03/08 09:31:15;;;;;;;2.92;1.70;;;12.70;98.00;;;;;;5022620;28;20071;-66
2023/03/08 09:33:47;;;;;;;4.10;2.15;;;13.00;99.20;;;;;;5024982;28;20025;-67
2023/03/08 09:36:13;;;;;;;2.58;1.60;;;13.40;97.90;;;;;;5022981;28;20038;-69
2023/03/08 09:38:40;;;;;;;2.17;1.23;;;12.90;97.40;;;;;;5026078;28;20033;-68
2023/03/08 09:41:29;;;;;;;1.92;1.50;;;12.30;99.80;;;;;;5026671;28;20095;-68
2023/03/08 09:44:08;;;;;;;3.63;1.83;;;12.20;98.70;;;;;;5025482;28;20030;-65
2023/03/08 09:46:42;;;;;;;2.10;1.45;;;11.90;99.20;;;;;;5024432;28;20401;-68
2023/03/08 09:49:14;;;;;;;4.95;2.38;;;11.50;99.70;;;;;;5025311;28;20025;-67
2023/03/08 09:51:44;;;;;;;2.40;1.55;;;11.30;99.90;;;;;;5026470;28;20038;-62
2023/03/08 09:54:19;;;;;;;3.55;2.22;;;11.20;99.90;;;;;;5027097;28;20029;-68
2023/03/08 09:56:50;;;;;;;3.42;1.58;;;11.10;99.90;;;;;;5025915;28;20104;-67
2023/03/08 09:59:24;;;;;;;4.60;1.70;;;11.00;99.90;;;;;;5025377;28;20026;-66
2023/03/08 10:02:01;;;;;;;3.22;1.70;;;11.30;99.90;;;;;;5024682;28;20108;-67
2023/03/08 10:04:57;;;;;;;2.58;1.83;;;11.50;99.90;;;;;;5017237;28;20057;-66
2023/03/08 10:07:46;;;;;;;5.50;2.05;;;11.70;99.90;;;;;;5026141;28;20087;-66
2023/03/08 10:10:17;;;;;;;2.95;1.40;;;11.80;99.80;;;;;;5026075;28;20035;-68
2023/03/08 10:13:10;;;;;;;2.08;1.50;;;12.00;99.90;;;;;;5026498;28;20711;-67
2023/03/08 10:15:42;;;;;;;3.95;1.75;;;12.30;99.90;;;;;;5025826;28;20528;-68
2023/03/08 10:18:21;;;;;;;6.90;2.10;;;12.40;99.20;;;;;;5026364;28;20500;-67
2023/03/08 10:20:47;;;;;;;8.07;1.50;;;12.50;99.90;;;;;;5024972;28;20026;-67
2023/03/08 10:23:19;;;;;;;1.77;1.42;;;12.40;99.00;;;;;;5028174;28;20064;-67
2023/03/08 10:25:46;;;;;;;3.65;2.00;;;12.30;99.20;;;;;;5024578;28;20052;-68
2023/03/08 10:28:17;;;;;;;2.40;1.77;;;12.20;98.90;;;;;;5024276;28;20128;-66
2023/03/08 10:30:46;;;;;;;5.78;1.55;;;12.10;99.30;;;;;;5024507;28;20052;-66
2023/03/08 10:33:16;;;;;;;2.78;1.63;;;12.10;99.30;;;;;;5024786;28;20176;-68
2023/03/08 10:36:05;;;;;;;3.72;1.77;;;12.20;99.80;;;;;;5025233;28;20525;-66
2023/03/08 10:38:33;;;;;;;5.03;1.58;;;12.30;99.80;;;;;;5022004;28;20100;-67
2023/03/08 10:41:13;;;;;;;2.08;1.50;;;12.30;99.20;;;;;;5025094;28;20207;-68
2023/03/08 10:43:48;;;;;;;5.35;2.33;;;12.20;99.90;;;;;;5029376;28;20049;-62
2023/03/08 10:46:20;;;;;;;2.67;1.38;;;12.10;99.70;;;;;;5028254;28;20520;-67
2023/03/08 10:48:46;;;;;;;2.75;1.98;;;12.00;99.90;;;;;;5030005;28;20028;-66
2023/03/08 10:51:20;;;;;;;4.97;2.05;;;11.90;99.90;;;;;;5029276;28;20038;-66
2023/03/08 10:53:58;;;;;;;3.13;2.05;;;11.80;99.90;;;;;;5028046;28;20116;-66
2023/03/08 10:56:29;;;;;;;4.03;1.90;;;11.90;99.90;;;;;;5021585;28;20029;-66
2023/03/08 10:58:56;;;;;;;2.35;1.70;;;11.80;99.90;;;;;;5020829;28;20551;-65
2023/03/08 11:01:31;;;;;;;4.43;1.90;;;11.80;99.90;;;;;;5028248;28;20076;-66
2023/03/08 11:04:02;;;;;;;3.55;1.70;;;11.80;99.90;;;;;;5029426;28;20489;-66
2023/03/08 11:06:28;;;;;;;2.67;1.42;;;11.80;99.90;;;;;;5024794;28;20061;-64
2023/03/08 11:08:58;;;;;;;5.43;1.73;;;11.80;99.90;;;;;;5057084;28;20405;-67
2023/03/08 11:11:25;;;;;;;6.15;2.10;;;11.80;99.90;;;;;;5027943;28;20045;-67
2023/03/08 11:13:52;;;;;;;4.30;2.15;;;11.70;99.90;;;;;;5029778;28;20030;-65
2023/03/08 11:16:17;;;;;;;1.83;1.50;;;11.70;99.90;;;;;;5029987;28;20416;-65
2023/03/08 11:18:43;;;;;;;5.57;1.60;;;11.70;99.90;;;;;;5030060;28;20025;-67
2023/03/08 11:21:30;;;;;;;3.60;2.00;;;11.80;99.90;;;;;;5027118;28;20022;-69
2023/03/08 11:24:17;;;;;;;5.55;1.58;;;11.80;99.90;;;;;;5021816;28;20499;-67
2023/03/08 11:26:45;;;;;;;5.57;2.15;;;11.80;99.90;;;;;;5027926;28;20175;-69
2023/03/08 11:29:34;;;;;;;3.13;1.80;;;11.80;99.90;;;;;;5026557;28;20041;-68
2023/03/08 11:32:15;;;;;;;2.42;1.77;;;11.80;99.90;;;;;;5025872;28;20051;-67
2023/03/08 11:34:43;;;;;;;4.05;1.50;;;11.80;99.90;;;;;;5026576;28;20063;-67
2023/03/08 11:37:29;;;;;;;3.80;1.30;;;11.80;99.90;;;;;;5025295;28;20036;-65
2023/03/08 11:40:21;;;;;;;3.53;1.90;;;11.70;99.90;;;;;;5025247;28;20025;-68
2023/03/08 11:43:26;;;;;;;3.10;1.60;;;11.60;99.90;;;;;;4997966;28;20045;-68
2023/03/08 11:46:06;;;;;;;4.63;1.60;;;11.50;99.90;;;;;;5027595;28;20120;-62
2023/03/08 11:48:50;;;;;;;2.63;1.60;;;11.50;99.90;;;;;;5024968;28;20033;-65
2023/03/08 11:51:18;;;;;;;5.40;1.65;;;11.40;99.90;;;;;;5025740;28;20136;-68
2023/03/08 11:53:50;;;;;;;3.35;1.40;;;11.40;99.90;;;;;;5026738;28;20505;-67
2023/03/08 11:56:33;;;;;;;3.97;1.50;;;11.30;99.90;;;;;;5026060;28;20087;-66
2023/03/08 11:59:04;;;;;;;5.63;1.63;;;11.20;99.90;;;;;;5020173;28;20055;-63
2023/03/08 12:01:40;;;;;;;4.28;2.13;;;11.20;99.90;;;;;;5023622;28;20414;-68
2023/03/08 12:04:16;;;;;;;2.03;1.30;;;11.10;99.90;;;;;;5025589;28;20026;-68
2023/03/08 12:06:43;;;;;;;2.63;1.40;;;11.10;99.90;;;;;;5025803;28;20291;-67
2023/03/08 12:09:30;;;;;;;2.38;1.70;;;11.10;99.90;;;;;;5026135;28;20032;-67
2023/03/08 12:12:14;;;;;;;6.03;1.60;;;11.10;99.90;;;;;;5023458;28;20033;-69
2023/03/08 12:14:50;;;;;;;7.22;1.73;;;11.10;99.90;;;;;;5021424;28;20370;-67
2023/03/08 12:17:27;;;;;;;2.80;1.48;;;11.10;99.90;;;;;;5022984;28;20025;-67
2023/03/08 12:19:53;;;;;;;5.68;1.80;;;11.10;99.90;;;;;;5026542;28;20497;-68
2023/03/08 12:22:50;;;;;;;4.40;2.63;;;11.10;99.90;;;;;;5026856;28;20048;-67
2023/03/08 12:25:31;;;;;;;4.20;2.00;;;11.10;99.90;;;;;;5024093;28;20052;-69
2023/03/08 12:28:03;;;;;;;3.78;1.95;;;11.30;99.90;;;;;;5024632;28;20432;-68
2023/03/08 12:31:06;;;;;;;7.90;2.13;;;11.50;99.90;;;;;;5026563;28;20144;-68
2023/03/08 12:33:32;;;;;;;3.67;1.85;;;11.70;99.90;;;;;;5028062;28;20401;-68
2023/03/08 12:36:04;;;;;;;2.22;1.55;;;11.80;99.90;;;;;;5027136;28;20032;-68
2023/03/08 12:38:37;;;;;;;6.85;2.05;;;11.80;99.90;;;;;;5021123;28;20051;-64
2023/03/08 12:41:05;;;;;;;4.93;1.92;;;11.70;99.80;;;;;;5027024;28;20413;-67
2023/03/08 12:43:33;;;;;;;5.60;1.90;;;11.60;99.90;;;;;;5027216;28;20456;-70
2023/03/08 12:45:59;;;;;;;2.72;1.67;;;11.60;99.90;;;;;;5026277;28;20029;-65
2023/03/08 12:48:38;;;;;;;3.43;1.57;;;11.60;99.90;;;;;;5026799;28;20045;-68
2023/03/08 12:51:13;;;;;;;2.80;1.67;;;11.50;99.90;;;;;;5027193;28;20044;-65
2023/03/08 12:53:40;;;;;;;1.65;1.40;;;11.40;99.90;;;;;;5026280;28;20035;-67
2023/03/08 12:56:09;;;;;;;5.82;1.45;;;11.30;99.90;;;;;;5025513;28;20034;-67